Time;durP1;ratioP1;P1;durP2;ratioP2;P2;SDS_P1;SDS_P2;PMS_P1;PMS_P2;Temp;Humidity;BMP_temperature;BMP_pressure;BME280_temperature;BME280_humidity;BME280_pressure;Samples;Min_cycle;Max_cycle;Signal;HPM_P1;HPM_P2
2021/04/06 00:04:14;;;;;;;6.93;2.80;;;;;;;17.87;34.37;99898.91;31072326;28;20585;-60
2021/04/06 00:19:16;;;;;;;5.80;3.03;;;;;;;17.83;34.31;99897.53;31059700;28;20050;-61
2021/04/06 00:34:17;;;;;;;6.75;2.92;;;;;;;17.78;33.95;99904.00;31086527;28;20415;-60
2021/04/06 00:49:18;;;;;;;6.47;2.78;;;;;;;17.75;34.74;99917.47;31035099;28;20108;-60
2021/04/06 01:04:21;;;;;;;5.87;2.57;;;;;;;17.72;34.81;99930.03;31091469;28;20036;-61
2021/04/06 01:19:22;;;;;;;5.60;2.65;;;;;;;17.69;35.21;99938.22;31094825;28;20293;-61
2021/04/06 01:34:24;;;;;;;4.47;2.53;;;;;;;17.65;35.23;99937.66;31042264;28;20562;-60
2021/04/06 01:49:25;;;;;;;4.97;2.35;;;;;;;17.61;34.45;99931.03;31052029;28;20034;-60
2021/04/06 02:04:26;;;;;;;5.20;2.20;;;;;;;17.57;34.34;99943.63;31064830;28;20044;-60
2021/04/06 02:19:38;;;;;;;4.38;2.22;;;;;;;17.53;34.96;99952.75;31062971;28;20639;-61
2021/04/06 02:34:41;;;;;;;4.57;2.17;;;;;;;17.51;33.99;99961.75;31075138;28;20033;-59
2021/04/06 02:49:42;;;;;;;4.70;2.13;;;;;;;17.49;34.20;99951.38;31099077;28;20416;-60
2021/04/06 03:04:43;;;;;;;5.10;2.13;;;;;;;17.47;35.76;99960.38;31050759;28;20038;-60
2021/04/06 03:19:44;;;;;;;5.93;1.95;;;;;;;17.43;34.40;99969.50;31043656;28;20298;-60
2021/04/06 03:34:45;;;;;;;3.53;1.70;;;;;;;17.40;34.89;99959.28;31025861;28;20038;-60
2021/04/06 03:49:47;;;;;;;4.63;2.00;;;;;;;17.37;35.09;99963.00;31091385;28;20044;-61
2021/04/06 04:04:50;;;;;;;3.42;1.90;;;;;;;17.32;35.02;99947.66;31059943;28;20304;-60
2021/04/06 04:19:51;;;;;;;4.07;1.55;;;;;;;17.30;35.00;99960.09;31053655;28;20042;-61
2021/04/06 04:34:52;;;;;;;3.80;1.70;;;;;;;17.27;35.47;99931.50;31069082;28;20027;-61
2021/04/06 04:49:53;;;;;;;5.17;1.70;;;;;;;17.25;35.90;99940.47;31073458;28;20301;-61
2021/04/06 05:04:54;;;;;;;3.20;1.50;;;;;;;17.25;35.38;99938.69;31069612;28;20304;-60
2021/04/06 05:19:55;;;;;;;5.07;1.70;;;;;;;17.26;35.34;99942.13;31055912;28;20296;-60
2021/04/06 05:34:56;;;;;;;3.90;1.23;;;;;;;17.26;34.88;99940.34;31116084;28;20315;-60
2021/04/06 05:49:57;;;;;;;4.10;1.47;;;;;;;17.30;35.37;99940.91;31082922;28;20654;-59
2021/04/06 06:04:58;;;;;;;2.77;1.20;;;;;;;17.32;34.77;99931.91;31093217;28;20301;-59
2021/04/06 06:19:59;;;;;;;6.97;2.80;;;;;;;15.74;28.24;99948.31;31145945;28;20781;-58
2021/04/06 06:35:00;;;;;;;6.47;2.35;;;;;;;13.99;32.99;99939.53;31105064;28;20297;-59
2021/04/06 06:50:11;;;;;;;5.88;2.00;;;;;;;16.01;32.71;99929.41;31099214;28;20054;-60
2021/04/06 07:05:16;;;;;;;7.13;1.90;;;;;;;17.15;31.95;99924.72;31035927;28;20508;-60
2021/04/06 07:20:23;;;;;;;8.13;1.95;;;;;;;17.88;31.76;99908.44;31025773;28;20034;-62
2021/04/06 07:35:24;;;;;;;4.15;1.38;;;;;;;18.29;31.36;99908.97;31041891;28;20478;-63
2021/04/06 07:50:55;;;;;;;5.43;1.58;;;;;;;18.67;31.01;99907.06;31057544;28;20543;-62
2021/04/06 08:06:16;;;;;;;5.13;1.90;;;;;;;18.84;31.54;99911.56;31007448;28;20050;-62
2021/04/06 08:21:19;;;;;;;5.30;1.95;;;;;;;19.16;31.03;99916.28;31111345;28;20583;-63
2021/04/06 08:36:26;;;;;;;9.23;2.83;;;;;;;19.37;30.30;99933.59;31132932;28;20076;-62
2021/04/06 08:51:44;;;;;;;14.25;7.47;;;;;;;19.42;30.76;99941.84;31128021;28;20049;-61
2021/04/06 09:06:45;;;;;;;14.18;5.43;;;;;;;19.55;30.82;99958.09;31176888;28;20091;-61
2021/04/06 09:21:54;;;;;;;14.17;4.70;;;;;;;19.72;31.19;99942.44;31158722;28;20050;-61
2021/04/06 09:36:57;;;;;;;7.68;4.55;;;;;;;20.36;29.83;99945.56;31143962;28;20773;-60
2021/04/06 09:52:00;;;;;;;7.45;3.72;;;;;;;21.11;29.59;99938.50;31162202;28;20073;-59
2021/04/06 10:07:11;;;;;;;6.60;3.15;;;;;;;22.35;27.02;99913.53;31146016;28;20030;-60
2021/04/06 10:22:13;;;;;;;9.40;2.83;;;;;;;30.27;16.43;99891.94;31162016;28;20056;-60
2021/04/06 10:37:14;;;;;;;5.68;3.22;;;;;;;24.72;22.05;99882.28;31153165;28;20026;-59
2021/04/06 10:52:15;;;;;;;14.83;6.80;;;;;;;21.72;26.71;99869.44;31121907;28;20042;-61
2021/04/06 11:07:28;;;;;;;9.37;5.97;;;;;;;21.22;28.40;99852.81;31140378;28;20301;-61
2021/04/06 11:22:29;;;;;;;8.02;5.10;;;;;;;21.46;28.15;99833.47;31211709;28;20296;-59
2021/04/06 11:37:30;;;;;;;6.90;4.40;;;;;;;21.55;28.37;99821.03;31140754;28;20026;-60
2021/04/06 11:52:31;;;;;;;8.70;4.90;;;;;;;21.87;28.71;99813.97;31158053;28;20775;-58
2021/04/06 12:07:32;;;;;;;9.48;4.07;;;;;;;21.98;29.08;99784.50;31120581;28;20296;-60
2021/04/06 12:22:34;;;;;;;7.28;3.60;;;;;;;22.06;29.41;99765.09;31142672;28;20093;-60
2021/04/06 12:37:36;;;;;;;5.88;3.40;;;;;;;21.77;29.94;99765.78;31137293;28;20037;-60
2021/04/06 12:52:36;;;;;;;6.30;3.70;;;;;;;21.47;29.17;99789.34;31096782;28;20428;-62
2021/04/06 13:07:37;;;;;;;9.57;4.00;;;;;;;21.10;30.65;99767.78;31125527;28;20285;-61
2021/04/06 13:22:39;;;;;;;7.07;4.00;;;;;;;21.39;30.94;99758.44;31092364;28;20293;-60
2021/04/06 13:37:40;;;;;;;7.50;3.78;;;;;;;21.28;31.43;99764.91;31128238;28;20286;-60
2021/04/06 13:52:41;;;;;;;7.88;3.92;;;;;;;21.36;31.29;99757.97;31140054;28;20025;-62
2021/04/06 14:07:43;;;;;;;5.82;3.53;;;;;;;21.20;31.66;99738.50;31112790;28;20053;-62
2021/04/06 14:22:44;;;;;;;7.03;4.40;;;;;;;20.69;32.78;99769.63;31137712;28;20775;-62
2021/04/06 14:37:45;;;;;;;7.30;4.38;;;;;;;20.43;33.65;99788.22;31175809;28;20349;-64
2021/04/06 14:52:46;;;;;;;7.10;4.57;;;;;;;20.23;33.04;99822.81;31179028;28;20465;-64
2021/04/06 15:07:47;;;;;;;8.70;5.53;;;;;;;19.89;33.38;99828.16;31183222;28;20299;-64
2021/04/06 15:22:48;;;;;;;8.57;5.80;;;;;;;20.01;32.75;99781.22;31202836;28;20288;-63
2021/04/06 15:37:50;;;;;;;8.95;5.47;;;;;;;20.23;32.44;99782.44;31203478;28;20439;-61
2021/04/06 15:52:51;;;;;;;7.18;5.20;;;;;;;20.05;32.58;99825.56;31182004;28;20030;-58
2021/04/06 16:07:52;;;;;;;7.53;5.43;;;;;;;19.74;33.20;99838.47;31157191;28;20039;-61
2021/04/06 16:22:58;;;;;;;7.90;5.47;;;;;;;19.55;33.39;99810.50;31141160;28;20354;-61
2021/04/06 16:37:59;;;;;;;;;;;;;;;19.53;32.83;99787.91;31084547;28;20049;-59
2021/04/06 16:53:01;;;;;;;8.20;5.03;;;;;;;19.35;33.02;99765.09;31103346;28;20032;-60
2021/04/06 17:08:02;;;;;;;9.32;5.47;;;;;;;19.27;33.70;99758.97;31175996;28;20025;-62
2021/04/06 17:23:03;;;;;;;8.02;5.43;;;;;;;19.19;33.61;99767.63;31164321;28;20103;-59
2021/04/06 17:38:05;;;;;;;7.77;5.27;;;;;;;19.04;33.54;99780.56;31252157;28;20052;-59
2021/04/06 17:53:06;;;;;;;3.13;1.20;;;;;;;15.30;30.11;99798.31;31182886;28;20299;-60
2021/04/06 18:08:09;;;;;;;4.47;1.80;;;;;;;14.62;33.54;99810.94;31171050;28;20130;-58
2021/04/06 18:23:10;;;;;;;4.85;2.20;;;;;;;16.80;31.53;99823.72;31088058;28;20053;-59
2021/04/06 18:38:10;;;;;;;7.23;3.20;;;;;;;18.09;30.30;99839.84;31190154;28;20084;-58
2021/04/06 18:53:12;;;;;;;19.30;10.17;;;;;;;18.81;29.94;99856.59;31191211;28;20300;-59
2021/04/06 19:08:14;;;;;;;16.08;8.85;;;;;;;19.33;30.57;99848.72;31123066;28;20710;-61
2021/04/06 19:23:16;;;;;;;15.82;10.38;;;;;;;19.62;29.66;99860.78;31149819;28;20058;-59
2021/04/06 19:38:17;;;;;;;14.32;8.95;;;;;;;19.75;30.21;99848.03;31155305;28;20032;-61
2021/04/06 19:53:18;;;;;;;13.70;8.73;;;;;;;19.83;30.37;99850.69;31153012;28;20488;-57
2021/04/06 20:08:19;;;;;;;13.68;8.32;;;;;;;19.74;30.91;99845.56;31170773;28;20025;-60
2021/04/06 20:23:21;;;;;;;12.77;8.75;;;;;;;19.72;30.70;99848.34;31141901;28;20045;-61
2021/04/06 20:38:22;;;;;;;15.45;8.95;;;;;;;19.62;30.39;99842.34;31100286;28;20124;-59
2021/04/06 20:53:23;;;;;;;12.13;8.30;;;;;;;19.48;30.75;99842.91;31102248;28;20514;-59
2021/04/06 21:08:24;;;;;;;13.40;8.90;;;;;;;19.36;30.47;99842.34;31135084;28;20342;-60
2021/04/06 21:23:25;;;;;;;12.00;8.57;;;;;;;19.23;30.72;99853.28;31140669;28;20057;-59
2021/04/06 21:38:26;;;;;;;10.88;7.85;;;;;;;19.11;30.70;99859.78;31153385;28;20296;-59
2021/04/06 21:53:27;;;;;;;10.50;7.27;;;;;;;18.98;30.93;99862.81;31096259;28;20497;-61
2021/04/06 22:08:28;;;;;;;9.07;6.47;;;;;;;18.76;31.47;99862.28;31161126;28;20292;-59
2021/04/06 22:23:29;;;;;;;9.30;6.40;;;;;;;18.65;32.04;99856.41;31090105;28;20042;-60
2021/04/06 22:38:33;;;;;;;9.80;6.60;;;;;;;18.55;32.47;99877.50;31018149;28;20277;-62
2021/04/06 22:53:35;;;;;;;8.82;6.30;;;;;;;18.48;32.79;99900.13;31099010;28;20045;-60
2021/04/06 23:08:36;;;;;;;8.60;6.15;;;;;;;18.41;32.68;99913.03;31122431;28;20034;-60
2021/04/06 23:23:37;;;;;;;10.25;6.30;;;;;;;18.33;32.92;99916.41;31120637;28;20046;-60
2021/04/06 23:38:38;;;;;;;8.13;5.28;;;;;;;18.28;33.07;99925.72;31121310;28;20030;-61
2021/04/06 23:53:39;;;;;;;9.53;5.97;;;;;;;18.20;33.63;99943.06;31117853;28;20038;-59
